Rekon — 9HA3129 — position and weather

sailwx.info

Track history (hours):
 
Tides and Currents Weather Stations Pressure Air Temp Water Temp Dewpoint Dewpoint Depression Visibility Wind Speed Wind Dir Waves Ship Positions

Rekon

Last reported at 2018-Jan-23 03:59 UTC. Time now 2018-Jan-23 04:12 UTC.
Position N 48°23' W 004°28'.

Length 122 m; draft 6.3 m.

Type: Tanker. MMSI: 229176000.

Date/timePositionNaut miles runAvg speedWind from/ knotsBaromVisibWave heightAir tempDewpointWater temp
2018-Jan-23 03:59N 48°23' W 004°28'0 0.0
2018-Jan-23 03:28N 48°23' W 004°28'0 0.0
2018-Jan-23 02:59N 48°23' W 004°28'0 0.0
2018-Jan-23 02:28N 48°23' W 004°28'0 0.0
2018-Jan-23 01:58N 48°23' W 004°28'0 0.0
2018-Jan-23 01:28N 48°23' W 004°28'0 0.0
2018-Jan-23 00:59N 48°23' W 004°28'0 0.0
2018-Jan-23 00:28N 48°23' W 004°28'0 0.0
2018-Jan-22 23:58N 48°23' W 004°28'0 0.0
2018-Jan-22 23:28N 48°23' W 004°28'0 0.0
2018-Jan-22 22:58N 48°23' W 004°28'0 0.0
2018-Jan-22 22:28N 48°23' W 004°28'0 0.0
2018-Jan-22 21:58N 48°23' W 004°28'0 0.0
2018-Jan-22 21:26N 48°23' W 004°28'0 0.0
2018-Jan-22 20:58N 48°23' W 004°28'0 0.0
2018-Jan-22 20:28N 48°23' W 004°28'0 0.0
2018-Jan-22 19:59N 48°23' W 004°28'0 0.0
2018-Jan-22 19:28N 48°23' W 004°28'0 0.0
2018-Jan-22 19:01N 48°23' W 004°28'0 1.0
2018-Jan-22 18:31N 48°23' W 004°28'510.0
2018-Jan-22 18:00N 48°20' W 004°35'611.5
2018-Jan-22 17:30N 48°18' W 004°42'5 9.8
2018-Jan-22 17:01N 48°17' W 004°50'1110.7
2018-Jan-22 15:58N 48°14' W 005°06'236 6.5
2018-Jan-21 03:41N 50°30' W 000°09'412.6
2018-Jan-21 03:25N 50°31' W 000°04'612.2
2018-Jan-21 02:55N 50°33' E 000°05'1910.9
2018-Jan-21 01:11N 50°38' E 000°34'310.4
2018-Jan-21 00:51N 50°40' E 000°38'510.9
2018-Jan-21 00:21N 50°43' E 000°45'2411.7
2018-Jan-20 22:21N 50°57' E 001°15'514.1
2018-Jan-20 21:57N 51°01' E 001°21'714.8
2018-Jan-20 21:30N 51°05' E 001°29'815.2
2018-Jan-20 21:01N 51°10' E 001°38'714.3
2018-Jan-20 20:31N 51°16' E 001°46'713.5
2018-Jan-20 20:00N 51°22' E 001°51'612.0
2018-Jan-20 19:30N 51°26' E 001°57'911.9
2018-Jan-20 18:45N 51°23' E 002°11'312.3
2018-Jan-20 18:30N 51°22' E 002°15'611.2
2018-Jan-20 18:00N 51°22' E 002°24'611.3
2018-Jan-20 17:29N 51°23' E 002°33'810.0
2018-Jan-20 16:44N 51°23' E 002°45'2 7.1
2018-Jan-20 16:29N 51°22' E 002°48'610.3
2018-Jan-20 15:54N 51°23' E 002°57'410.0
2018-Jan-20 15:30N 51°25' E 003°03'5 9.5
2018-Jan-20 15:00N 51°24' E 003°11'4 9.0
2018-Jan-20 14:30N 51°25' E 003°18'12 8.4
2018-Jan-20 13:04N 51°26' E 003°37'1 9.4
2018-Jan-20 12:59N 51°26' E 003°39'4 8.7
2018-Jan-20 12:30N 51°23' E 003°43'5 9.6
2018-Jan-20 12:00N 51°20' E 003°49'0 0.7
2018-Jan-20 11:30N 51°20' E 003°49'0 0.0
2018-Jan-20 11:00N 51°20' E 003°49'0 0.0
2018-Jan-20 10:30N 51°20' E 003°49'0 0.0
2018-Jan-20 10:00N 51°20' E 003°49'1 1.0
2018-Jan-20 09:30N 51°19' E 003°49'2 4.0
2018-Jan-20 09:00N 51°17' E 003°50'3 6.6
2018-Jan-20 08:30N 51°14' E 003°49'3 6.8
2018-Jan-20 08:00N 51°11' E 003°48'3 5.5
2018-Jan-20 07:28N 51°08' E 003°46'0 0.0
2018-Jan-20 06:58N 51°08' E 003°46'0 0.0
2018-Jan-20 06:30N 51°08' E 003°46'0 0.0
2018-Jan-20 06:00N 51°08' E 003°46'0 0.0
2018-Jan-20 05:24N 51°08' E 003°46'0 0.0
2018-Jan-20 04:48N 51°08' E 003°46'0 0.0
2018-Jan-20 04:30N 51°08' E 003°46'0 0.0
2018-Jan-20 03:57N 51°08' E 003°46'0 0.0
2018-Jan-20 03:27N 51°08' E 003°46'0 0.0
2018-Jan-20 03:00N 51°08' E 003°46'0 0.0
2018-Jan-20 02:30N 51°08' E 003°46'0 0.0
2018-Jan-20 01:20N 51°08' E 003°46'0 0.0
2018-Jan-20 00:59N 51°08' E 003°46'0 0.0
2018-Jan-20 00:25N 51°08' E 003°46'0 0.0
2018-Jan-20 00:00N 51°08' E 003°46'0 0.0
2018-Jan-19 23:24N 51°08' E 003°46'0 0.0
2018-Jan-19 22:45N 51°08' E 003°46'0 0.0
2018-Jan-19 22:30N 51°08' E 003°46'0 0.0
2018-Jan-19 21:49N 51°08' E 003°46'0 0.0
2018-Jan-19 21:01N 51°08' E 003°46'0 0.0
2018-Jan-19 20:47N 51°08' E 003°46'0 0.0
2018-Jan-19 07:40N 51°08' E 003°46'0 0.0
2018-Jan-19 07:30N 51°08' E 003°46'0 0.1
2018-Jan-19 06:59N 51°08' E 003°46'0 0.5
2018-Jan-19 06:30N 51°08' E 003°46'4 6.7
2018-Jan-19 05:51N 51°12' E 003°48'2 7.0
2018-Jan-19 05:30N 51°14' E 003°49'3 6.7
2018-Jan-19 05:00N 51°18' E 003°50'2 4.5
2018-Jan-19 04:30N 51°20' E 003°49'1 1.1
2018-Jan-19 04:00N 51°20' E 003°49'3 6.9
2018-Jan-19 03:30N 51°22' E 003°44'  
Track history (hours):
 
Tides and Currents Weather Stations Pressure Air Temp Water Temp Dewpoint Dewpoint Depression Visibility Wind Speed Wind Dir Waves Ship Positions

Rekon

Last reported at 2018-Jan-23 03:59 UTC. Time now 2018-Jan-23 04:12 UTC.
Position N 48°23' W 004°28'.

Length 122 m; draft 6.3 m.

Type: Tanker. MMSI: 229176000.

Date/timePositionNaut miles runAvg speedWind from/ knotsBaromVisibWave heightAir tempDewpointWater temp
2018-Jan-23 03:59N 48°23' W 004°28'0 0.0
2018-Jan-23 03:28N 48°23' W 004°28'0 0.0
2018-Jan-23 02:59N 48°23' W 004°28'0 0.0
2018-Jan-23 02:28N 48°23' W 004°28'0 0.0
2018-Jan-23 01:58N 48°23' W 004°28'0 0.0
2018-Jan-23 01:28N 48°23' W 004°28'0 0.0
2018-Jan-23 00:59N 48°23' W 004°28'0 0.0
2018-Jan-23 00:28N 48°23' W 004°28'0 0.0
2018-Jan-22 23:58N 48°23' W 004°28'0 0.0
2018-Jan-22 23:28N 48°23' W 004°28'0 0.0
2018-Jan-22 22:58N 48°23' W 004°28'0 0.0
2018-Jan-22 22:28N 48°23' W 004°28'0 0.0
2018-Jan-22 21:58N 48°23' W 004°28'0 0.0
2018-Jan-22 21:26N 48°23' W 004°28'0 0.0
2018-Jan-22 20:58N 48°23' W 004°28'0 0.0
2018-Jan-22 20:28N 48°23' W 004°28'0 0.0
2018-Jan-22 19:59N 48°23' W 004°28'0 0.0
2018-Jan-22 19:28N 48°23' W 004°28'0 0.0
2018-Jan-22 19:01N 48°23' W 004°28'0 1.0
2018-Jan-22 18:31N 48°23' W 004°28'510.0
2018-Jan-22 18:00N 48°20' W 004°35'611.5
2018-Jan-22 17:30N 48°18' W 004°42'5 9.8
2018-Jan-22 17:01N 48°17' W 004°50'1110.7
2018-Jan-22 15:58N 48°14' W 005°06'236 6.5
2018-Jan-21 03:41N 50°30' W 000°09'412.6
2018-Jan-21 03:25N 50°31' W 000°04'612.2
2018-Jan-21 02:55N 50°33' E 000°05'1910.9
2018-Jan-21 01:11N 50°38' E 000°34'310.4
2018-Jan-21 00:51N 50°40' E 000°38'510.9
2018-Jan-21 00:21N 50°43' E 000°45'2411.7
2018-Jan-20 22:21N 50°57' E 001°15'514.1
2018-Jan-20 21:57N 51°01' E 001°21'714.8
2018-Jan-20 21:30N 51°05' E 001°29'815.2
2018-Jan-20 21:01N 51°10' E 001°38'714.3
2018-Jan-20 20:31N 51°16' E 001°46'713.5
2018-Jan-20 20:00N 51°22' E 001°51'612.0
2018-Jan-20 19:30N 51°26' E 001°57'911.9
2018-Jan-20 18:45N 51°23' E 002°11'312.3
2018-Jan-20 18:30N 51°22' E 002°15'611.2
2018-Jan-20 18:00N 51°22' E 002°24'611.3
2018-Jan-20 17:29N 51°23' E 002°33'810.0
2018-Jan-20 16:44N 51°23' E 002°45'2 7.1
2018-Jan-20 16:29N 51°22' E 002°48'610.3
2018-Jan-20 15:54N 51°23' E 002°57'410.0
2018-Jan-20 15:30N 51°25' E 003°03'5 9.5
2018-Jan-20 15:00N 51°24' E 003°11'4 9.0
2018-Jan-20 14:30N 51°25' E 003°18'12 8.4
2018-Jan-20 13:04N 51°26' E 003°37'1 9.4
2018-Jan-20 12:59N 51°26' E 003°39'4 8.7
2018-Jan-20 12:30N 51°23' E 003°43'5 9.6
2018-Jan-20 12:00N 51°20' E 003°49'0 0.7
2018-Jan-20 11:30N 51°20' E 003°49'0 0.0
2018-Jan-20 11:00N 51°20' E 003°49'0 0.0
2018-Jan-20 10:30N 51°20' E 003°49'0 0.0
2018-Jan-20 10:00N 51°20' E 003°49'1 1.0
2018-Jan-20 09:30N 51°19' E 003°49'2 4.0
2018-Jan-20 09:00N 51°17' E 003°50'3 6.6
2018-Jan-20 08:30N 51°14' E 003°49'3 6.8
2018-Jan-20 08:00N 51°11' E 003°48'3 5.5
2018-Jan-20 07:28N 51°08' E 003°46'0 0.0
2018-Jan-20 06:58N 51°08' E 003°46'0 0.0
2018-Jan-20 06:30N 51°08' E 003°46'0 0.0
2018-Jan-20 06:00N 51°08' E 003°46'0 0.0
2018-Jan-20 05:24N 51°08' E 003°46'0 0.0
2018-Jan-20 04:48N 51°08' E 003°46'0 0.0
2018-Jan-20 04:30N 51°08' E 003°46'0 0.0
2018-Jan-20 03:57N 51°08' E 003°46'0 0.0
2018-Jan-20 03:27N 51°08' E 003°46'0 0.0
2018-Jan-20 03:00N 51°08' E 003°46'0 0.0
2018-Jan-20 02:30N 51°08' E 003°46'0 0.0
2018-Jan-20 01:20N 51°08' E 003°46'0 0.0
2018-Jan-20 00:59N 51°08' E 003°46'0 0.0
2018-Jan-20 00:25N 51°08' E 003°46'0 0.0
2018-Jan-20 00:00N 51°08' E 003°46'0 0.0
2018-Jan-19 23:24N 51°08' E 003°46'0 0.0
2018-Jan-19 22:45N 51°08' E 003°46'0 0.0
2018-Jan-19 22:30N 51°08' E 003°46'0 0.0
2018-Jan-19 21:49N 51°08' E 003°46'0 0.0
2018-Jan-19 21:01N 51°08' E 003°46'0 0.0
2018-Jan-19 20:47N 51°08' E 003°46'0 0.0
2018-Jan-19 07:40N 51°08' E 003°46'0 0.0
2018-Jan-19 07:30N 51°08' E 003°46'0 0.1
2018-Jan-19 06:59N 51°08' E 003°46'0 0.5
2018-Jan-19 06:30N 51°08' E 003°46'4 6.7
2018-Jan-19 05:51N 51°12' E 003°48'2 7.0
2018-Jan-19 05:30N 51°14' E 003°49'3 6.7
2018-Jan-19 05:00N 51°18' E 003°50'2 4.5
2018-Jan-19 04:30N 51°20' E 003°49'1 1.1
2018-Jan-19 04:00N 51°20' E 003°49'3 6.9
2018-Jan-19 03:30N 51°22' E 003°44'  

Dump ship's entire track history